createdAt,value
2018-06-08T00:01:15.903Z,92.80
2018-06-08T00:03:45.558Z,92.80
2018-06-08T00:06:15.058Z,92.90
2018-06-08T00:08:48.568Z,92.90
2018-06-08T00:11:16.762Z,93.10
2018-06-08T00:16:14.146Z,92.90
2018-06-08T00:18:42.743Z,92.80
2018-06-08T00:23:40.198Z,92.80
2018-06-08T00:26:09.890Z,92.90
2018-06-08T00:28:38.877Z,93.00
2018-06-08T00:31:08.157Z,93.40
2018-06-08T00:33:36.291Z,93.30
2018-06-08T00:36:06.299Z,93.40
2018-06-08T00:38:35.467Z,93.50
2018-06-08T00:41:05.593Z,93.50
2018-06-08T00:43:39.108Z,93.70
2018-06-08T00:46:09.073Z,93.60
2018-06-08T00:48:37.829Z,93.60
2018-06-08T00:51:07.778Z,93.50
2018-06-08T00:53:37.860Z,93.60
2018-06-08T00:58:36.065Z,93.50
2018-06-08T01:01:06.357Z,93.50
2018-06-08T01:03:34.346Z,93.50
2018-06-08T01:06:03.165Z,93.40
2018-06-08T01:08:32.640Z,93.50
2018-06-08T01:11:04.326Z,93.40
2018-06-08T01:13:33.112Z,93.20
2018-06-08T01:16:02.354Z,93.10
2018-06-08T01:18:31.275Z,93.20
2018-06-08T01:21:00.137Z,93.10
2018-06-08T01:23:28.799Z,93.40
2018-06-08T01:25:57.490Z,93.40
2018-06-08T01:30:55.503Z,93.50
2018-06-08T01:33:24.146Z,93.50
2018-06-08T01:35:52.197Z,93.30
2018-06-08T01:40:51.367Z,93.20
2018-06-08T01:43:21.334Z,93.50
2018-06-08T01:45:53.206Z,93.50
2018-06-08T01:50:50.703Z,93.70
2018-06-08T01:53:21.571Z,94.00
2018-06-08T01:58:22.545Z,94.20
2018-06-08T02:00:52.176Z,94.20
2018-06-08T02:03:21.303Z,94.30
2018-06-08T02:05:51.731Z,94.40
2018-06-08T02:10:50.027Z,94.60
2018-06-08T02:13:21.140Z,94.70
2018-06-08T02:15:51.470Z,94.70
2018-06-08T02:20:54.068Z,94.80
2018-06-08T02:23:24.357Z,94.70
2018-06-08T02:28:22.609Z,94.70
2018-06-08T02:30:52.925Z,94.70
2018-06-08T02:33:23.142Z,94.70
2018-06-08T02:35:52.115Z,94.60
2018-06-08T02:38:21.745Z,94.70
2018-06-08T02:40:51.790Z,94.70
2018-06-08T02:43:20.525Z,94.60
2018-06-08T02:45:49.283Z,94.50
2018-06-08T02:48:18.643Z,94.40
2018-06-08T02:53:17.611Z,94.40
2018-06-08T02:55:46.714Z,94.30
2018-06-08T02:58:15.676Z,94.20
2018-06-08T03:00:49.605Z,94.40
2018-06-08T03:08:14.690Z,94.40
2018-06-08T03:10:45.937Z,94.30
2018-06-08T03:13:17.031Z,94.30
2018-06-08T03:15:46.827Z,94.30
2018-06-08T03:18:16.961Z,94.40
2018-06-08T03:20:47.242Z,94.20
2018-06-08T03:23:17.436Z,94.40
2018-06-08T03:25:47.074Z,94.20
2018-06-08T03:28:17.695Z,94.10
2018-06-08T03:30:51.613Z,94.10
2018-06-08T03:33:25.283Z,94.30
2018-06-08T03:35:54.551Z,94.30
2018-06-08T03:38:23.783Z,94.20
2018-06-08T03:40:54.104Z,94.10
2018-06-08T03:43:24.531Z,94.30
2018-06-08T03:45:54.380Z,94.30
2018-06-08T03:48:24.459Z,94.30
2018-06-08T03:55:54.613Z,94.10
2018-06-08T04:00:54.098Z,94.00
2018-06-08T04:03:24.002Z,94.00
2018-06-08T04:05:54.475Z,94.20
2018-06-08T04:08:25.626Z,94.10
2018-06-08T04:10:57.298Z,94.10
2018-06-08T04:13:27.868Z,94.10
2018-06-08T04:15:58.651Z,94.00
2018-06-08T04:18:28.799Z,93.90
2018-06-08T04:25:58.379Z,93.90
2018-06-08T04:28:27.974Z,93.90
2018-06-08T04:30:57.809Z,93.70
2018-06-08T04:35:57.780Z,94.20
2018-06-08T04:38:28.441Z,94.30
2018-06-08T04:43:26.838Z,93.80
2018-06-08T04:45:56.125Z,93.80
2018-06-08T04:48:25.929Z,93.60
2018-06-08T04:50:56.336Z,93.60
2018-06-08T04:53:27.550Z,93.60
2018-06-08T04:55:57.745Z,93.50
2018-06-08T04:58:27.364Z,93.60
2018-06-08T05:00:58.731Z,93.60
2018-06-08T05:03:31.419Z,93.50
2018-06-08T05:06:01.790Z,93.60
2018-06-08T05:11:00.428Z,93.80
2018-06-08T05:13:31.232Z,93.60
2018-06-08T05:15:59.465Z,93.60
2018-06-08T05:18:31.551Z,93.50
2018-06-08T05:21:00.764Z,93.70
2018-06-08T05:23:31.055Z,93.60
2018-06-08T05:31:00.188Z,93.70
2018-06-08T05:33:30.428Z,93.60
2018-06-08T05:36:02.783Z,93.70
2018-06-08T05:38:30.898Z,93.70
2018-06-08T05:41:00.255Z,93.70
2018-06-08T05:45:57.180Z,93.70
2018-06-08T05:48:26.760Z,93.60
2018-06-08T05:50:55.081Z,93.70
2018-06-08T05:53:24.388Z,93.50
2018-06-08T05:55:52.442Z,93.30
2018-06-08T05:58:21.211Z,93.30
2018-06-08T06:00:50.241Z,93.30
2018-06-08T06:03:20.634Z,93.60
2018-06-08T06:05:51.491Z,93.70
2018-06-08T06:08:19.563Z,93.60
2018-06-08T06:10:48.742Z,93.60
2018-06-08T06:13:17.090Z,93.60
2018-06-08T06:15:45.783Z,93.80
2018-06-08T06:18:14.082Z,93.70
2018-06-08T06:20:42.892Z,93.80
2018-06-08T06:23:12.210Z,93.80
2018-06-08T06:25:41.851Z,93.80
2018-06-08T06:28:13.186Z,94.10
2018-06-08T06:30:42.136Z,94.10
2018-06-08T06:33:11.736Z,94.00
2018-06-08T06:35:40.553Z,94.20
2018-06-08T06:38:11.967Z,94.00
2018-06-08T06:40:40.622Z,93.80
2018-06-08T06:43:09.887Z,93.90
2018-06-08T06:48:09.608Z,93.80
2018-06-08T06:53:07.482Z,93.80
2018-06-08T06:58:05.207Z,93.90
2018-06-08T07:00:34.796Z,94.00
2018-06-08T07:03:03.525Z,94.00
2018-06-08T07:05:31.732Z,93.70
2018-06-08T07:08:00.583Z,93.90
2018-06-08T07:10:29.244Z,93.70
2018-06-08T07:12:58.064Z,93.80
2018-06-08T07:15:27.692Z,93.80
2018-06-08T07:17:55.620Z,93.90
2018-06-08T07:20:23.626Z,94.00
2018-06-08T07:22:52.793Z,94.00
2018-06-08T07:25:22.094Z,94.10
2018-06-08T07:27:51.325Z,94.00
2018-06-08T07:30:21.138Z,94.00
2018-06-08T07:32:49.180Z,93.90
2018-06-08T07:35:17.272Z,93.90
2018-06-08T07:40:13.869Z,93.70
2018-06-08T07:42:42.586Z,93.70
2018-06-08T07:45:11.082Z,93.50
2018-06-08T07:47:39.128Z,93.50
2018-06-08T07:50:07.778Z,93.40
2018-06-08T07:52:36.474Z,93.60
2018-06-08T07:55:05.949Z,93.50
2018-06-08T07:57:34.702Z,93.60
2018-06-08T08:00:03.400Z,93.40
2018-06-08T08:02:32.101Z,93.70
2018-06-08T08:05:00.008Z,93.40
2018-06-08T08:07:31.295Z,93.30
2018-06-08T08:09:59.704Z,93.10
2018-06-08T08:12:27.613Z,93.20
2018-06-08T08:17:23.428Z,93.40
2018-06-08T08:19:51.974Z,93.00
2018-06-08T08:22:19.910Z,93.00
2018-06-08T08:29:43.493Z,93.00
2018-06-08T08:34:39.784Z,93.00
2018-06-08T08:37:07.793Z,93.00
2018-06-08T08:39:35.787Z,92.90
2018-06-08T08:44:31.689Z,92.60
2018-06-08T08:46:59.579Z,92.50
2018-06-08T08:51:55.884Z,92.20
2018-06-08T08:54:24.022Z,92.10
2018-06-08T08:59:19.729Z,92.30
2018-06-08T09:01:47.990Z,92.30
2018-06-08T09:04:15.900Z,92.10
2018-06-08T09:09:11.942Z,91.90
2018-06-08T09:16:35.327Z,91.80
2018-06-08T09:21:30.988Z,91.90
2018-06-08T09:23:59.122Z,92.00
2018-06-08T09:26:27.416Z,91.70
2018-06-08T09:33:51.516Z,91.40
2018-06-08T09:36:19.685Z,91.60
2018-06-08T09:38:47.608Z,91.50
2018-06-08T09:41:15.555Z,91.60
2018-06-08T09:43:43.774Z,91.70
2018-06-08T09:46:11.713Z,91.40
2018-06-08T09:48:39.593Z,91.40
2018-06-08T09:51:08.195Z,91.50
2018-06-08T09:53:36.124Z,91.20
2018-06-08T09:56:04.043Z,91.10
2018-06-08T09:58:31.917Z,91.40
2018-06-08T10:00:59.879Z,91.30
2018-06-08T10:03:27.766Z,90.90
2018-06-08T10:08:23.543Z,90.70
2018-06-08T10:10:51.590Z,90.90
2018-06-08T10:13:19.487Z,90.70
2018-06-08T10:15:47.364Z,90.30
2018-06-08T10:18:15.858Z,90.50
2018-06-08T10:20:44.195Z,90.20
2018-06-08T10:23:12.346Z,90.30
2018-06-08T10:28:08.013Z,90.50
2018-06-08T10:30:35.985Z,90.80
2018-06-08T10:33:05.511Z,91.00
2018-06-08T10:35:33.532Z,90.80
2018-06-08T10:38:01.559Z,90.60
2018-06-08T10:40:29.790Z,90.80
2018-06-08T10:42:57.938Z,90.40
2018-06-08T10:45:25.865Z,90.20
2018-06-08T10:47:53.770Z,90.40
2018-06-08T10:50:21.672Z,90.50
2018-06-08T10:52:49.661Z,90.70
2018-06-08T10:55:17.724Z,90.60
2018-06-08T10:57:45.621Z,90.00
2018-06-08T11:00:13.623Z,90.80
2018-06-08T11:05:09.389Z,88.90
2018-06-08T11:07:37.353Z,88.10
2018-06-08T11:10:05.618Z,87.60
2018-06-08T11:12:33.503Z,87.80
2018-06-08T11:15:01.404Z,87.70
2018-06-08T11:17:29.905Z,86.60
2018-06-08T11:19:57.830Z,86.60
2018-06-08T11:22:26.197Z,85.80
2018-06-08T11:24:54.083Z,86.20
2018-06-08T11:27:22.302Z,85.90
2018-06-08T11:32:18.783Z,84.00
2018-06-08T11:34:47.346Z,83.50
2018-06-08T11:39:43.303Z,83.50
2018-06-08T11:42:11.371Z,83.60
2018-06-08T11:47:07.877Z,84.50
2018-06-08T11:52:05.860Z,84.40
2018-06-08T11:54:34.253Z,84.00
2018-06-08T11:57:02.343Z,81.50
2018-06-08T12:01:58.944Z,82.50
2018-06-08T12:04:26.985Z,82.50
2018-06-08T12:06:55.549Z,81.20
2018-06-08T12:09:24.087Z,82.00
2018-06-08T12:11:52.151Z,81.40
2018-06-08T12:14:20.158Z,81.80
2018-06-08T12:16:48.846Z,81.40
2018-06-08T12:19:16.793Z,80.50
2018-06-08T12:21:44.745Z,79.50
2018-06-08T12:24:12.671Z,79.70
2018-06-08T12:29:08.628Z,80.10
2018-06-08T12:31:37.524Z,80.40
2018-06-08T12:34:05.695Z,79.70
2018-06-08T12:43:57.120Z,81.70
2018-06-08T12:46:25.011Z,80.40
2018-06-08T12:48:53.127Z,79.30
2018-06-08T12:51:21.779Z,79.70
2018-06-08T12:56:17.635Z,79.60
2018-06-08T12:58:46.221Z,79.50
2018-06-08T13:03:41.829Z,78.00
2018-06-08T13:11:06.071Z,78.50
2018-06-08T13:13:34.445Z,79.60
2018-06-08T13:16:02.314Z,79.40
2018-06-08T13:18:30.289Z,77.00
2018-06-08T13:20:58.395Z,76.80
2018-06-08T13:23:26.748Z,75.90
2018-06-08T13:25:54.654Z,76.30
2018-06-08T13:28:22.574Z,76.00
2018-06-08T13:30:50.479Z,74.40
2018-06-08T13:33:18.355Z,73.20
2018-06-08T13:35:47.042Z,72.20
2018-06-08T13:38:14.949Z,73.20
2018-06-08T13:40:42.841Z,73.30
2018-06-08T13:43:11.210Z,73.30
2018-06-08T13:45:40.004Z,74.40
2018-06-08T13:48:08.004Z,71.90
2018-06-08T13:50:36.066Z,72.90
2018-06-08T13:53:03.976Z,71.60
2018-06-08T13:55:32.103Z,73.00
2018-06-08T13:57:59.970Z,73.30
2018-06-08T14:00:27.815Z,72.90
2018-06-08T14:02:55.700Z,72.40
2018-06-08T14:05:23.845Z,71.80
2018-06-08T14:07:52.438Z,71.50
2018-06-08T14:10:20.354Z,70.30
2018-06-08T14:12:48.304Z,72.40
2018-06-08T14:15:16.214Z,72.40
2018-06-08T14:22:40.226Z,70.10
2018-06-08T14:25:08.366Z,71.40
2018-06-08T14:27:36.265Z,71.20
2018-06-08T14:30:04.586Z,71.00
2018-06-08T14:32:32.468Z,71.10
2018-06-08T14:35:00.382Z,71.20
2018-06-08T14:42:24.678Z,71.20
2018-06-08T14:44:52.747Z,71.70
2018-06-08T14:47:21.178Z,70.50
2018-06-08T14:49:49.069Z,70.60
2018-06-08T14:52:16.989Z,71.20
2018-06-08T14:57:12.593Z,71.00
2018-06-08T14:59:40.814Z,69.00
2018-06-08T15:02:09.182Z,69.20
2018-06-08T15:04:37.133Z,69.90
2018-06-08T15:07:05.116Z,70.80
2018-06-08T15:12:02.100Z,70.80
2018-06-08T15:14:29.985Z,71.70
2018-06-08T15:16:58.102Z,69.90
2018-06-08T15:21:53.722Z,71.00
2018-06-08T15:24:21.640Z,69.70
2018-06-08T15:26:49.665Z,69.80
2018-06-08T15:29:17.551Z,70.00
2018-06-08T15:34:13.700Z,70.30
2018-06-08T15:36:41.569Z,69.60
2018-06-08T15:41:37.186Z,68.10
2018-06-08T15:44:05.693Z,68.50
2018-06-08T15:49:01.337Z,68.60
2018-06-08T15:51:29.205Z,69.30
2018-06-08T15:53:57.113Z,69.30
2018-06-08T15:56:25.014Z,69.70
2018-06-08T15:58:53.348Z,68.60
2018-06-08T16:01:21.206Z,69.10
2018-06-08T16:03:49.079Z,68.40
2018-06-08T16:06:16.988Z,68.70
2018-06-08T16:11:12.638Z,68.50
2018-06-08T16:16:08.260Z,69.10
2018-06-08T16:18:36.104Z,70.00
2018-06-08T16:21:03.995Z,68.50
2018-06-08T16:25:59.845Z,67.90
2018-06-08T16:30:55.504Z,68.80
2018-06-08T16:33:24.051Z,68.40
2018-06-08T16:40:48.131Z,71.60
2018-06-08T16:43:16.576Z,70.90
2018-06-08T16:45:44.434Z,71.60
2018-06-08T16:48:12.361Z,71.90
2018-06-08T16:50:40.419Z,71.70
2018-06-08T16:53:09.034Z,72.60
2018-06-08T16:58:05.505Z,73.00
2018-06-08T17:00:33.447Z,72.10
2018-06-08T17:03:01.312Z,71.80
2018-06-08T17:05:29.169Z,72.60
2018-06-08T17:07:57.044Z,73.50
2018-06-08T17:10:25.086Z,73.60
2018-06-08T17:12:52.986Z,74.40
2018-06-08T17:15:20.846Z,74.20
2018-06-08T17:17:48.725Z,74.80
2018-06-08T17:20:17.638Z,74.60
2018-06-08T17:25:14.027Z,74.70
2018-06-08T17:27:42.765Z,75.00
2018-06-08T17:35:06.993Z,76.00
2018-06-08T17:40:02.734Z,76.90
2018-06-08T17:42:30.629Z,76.90
2018-06-08T17:44:58.511Z,76.80
2018-06-08T17:47:26.863Z,77.00
2018-06-08T17:49:55.419Z,77.00
2018-06-08T17:52:23.703Z,77.10
2018-06-08T17:54:52.178Z,77.30
2018-06-08T17:59:48.356Z,77.70
2018-06-08T18:02:16.574Z,78.10
2018-06-08T18:04:44.517Z,78.40
2018-06-08T18:07:12.406Z,78.40
2018-06-08T18:09:40.274Z,78.20
2018-06-08T18:12:08.514Z,78.60
2018-06-08T18:14:36.887Z,78.80
2018-06-08T18:17:04.766Z,78.80
2018-06-08T18:19:32.649Z,78.90
2018-06-08T18:22:00.535Z,79.30
2018-06-08T18:24:28.434Z,79.30
2018-06-08T18:26:56.334Z,79.60
2018-06-08T18:29:24.818Z,79.80
2018-06-08T18:31:52.750Z,79.80
2018-06-08T18:36:48.390Z,80.20
2018-06-08T18:39:16.316Z,80.20
2018-06-08T18:41:44.464Z,80.20
2018-06-08T18:44:12.373Z,80.50
2018-06-08T18:46:41.902Z,80.70
2018-06-08T18:49:10.093Z,81.10
2018-06-08T18:51:38.046Z,81.30
2018-06-08T18:54:06.913Z,81.50
2018-06-08T18:56:34.851Z,81.80
2018-06-08T18:59:02.800Z,81.90
2018-06-08T19:01:30.878Z,82.20
2018-06-08T19:03:58.851Z,82.40
2018-06-08T19:06:27.399Z,82.70
2018-06-08T19:08:55.908Z,83.00
2018-06-08T19:11:24.264Z,83.20
2018-06-08T19:13:52.266Z,83.40
2018-06-08T19:16:20.291Z,83.80
2018-06-08T19:18:48.200Z,83.90
2018-06-08T19:21:16.448Z,84.30
2018-06-08T19:23:44.488Z,84.60
2018-06-08T19:26:12.438Z,84.80
2018-06-08T19:31:08.386Z,85.80
2018-06-08T19:33:36.391Z,85.90
2018-06-08T19:36:04.906Z,86.30
2018-06-08T19:38:33.041Z,86.30
2018-06-08T19:41:01.188Z,86.70
2018-06-08T19:43:29.268Z,86.90
2018-06-08T19:48:25.076Z,87.60
2018-06-08T19:50:52.957Z,87.90
2018-06-08T19:53:21.904Z,88.10
2018-06-08T19:55:50.795Z,88.40
2018-06-08T19:58:18.823Z,88.60
2018-06-08T20:05:42.247Z,89.00
2018-06-08T20:08:10.279Z,89.10
2018-06-08T20:10:38.161Z,89.20
2018-06-08T20:15:34.454Z,89.40
2018-06-08T20:18:02.361Z,89.30
2018-06-08T20:20:30.664Z,89.50
2018-06-08T20:22:58.565Z,89.50
2018-06-08T20:25:26.448Z,89.70
2018-06-08T20:30:22.434Z,90.10
2018-06-08T20:32:50.452Z,90.10
2018-06-08T20:35:18.367Z,90.10
2018-06-08T20:42:41.821Z,90.20
2018-06-08T20:45:09.758Z,90.30
2018-06-08T20:47:37.687Z,90.40
2018-06-08T20:50:06.259Z,90.40
2018-06-08T20:52:34.282Z,90.40
2018-06-08T20:55:02.163Z,90.50
2018-06-08T20:57:30.055Z,90.50
2018-06-08T20:59:57.923Z,90.70
2018-06-08T21:02:25.933Z,90.80
2018-06-08T21:04:54.713Z,90.80
2018-06-08T21:07:22.706Z,90.90
2018-06-08T21:09:51.463Z,91.00
2018-06-08T21:12:19.368Z,91.10
2018-06-08T21:14:47.286Z,91.10
2018-06-08T21:17:15.378Z,91.20
2018-06-08T21:24:39.146Z,91.30
2018-06-08T21:27:07.066Z,91.40
2018-06-08T21:29:34.945Z,91.60
2018-06-08T21:32:02.918Z,91.60
2018-06-08T21:34:31.782Z,91.70
2018-06-08T21:39:27.430Z,91.60
2018-06-08T21:44:23.217Z,91.70
2018-06-08T21:46:51.198Z,91.70
2018-06-08T21:49:19.078Z,91.80
2018-06-08T21:54:14.698Z,91.80
2018-06-08T21:56:42.883Z,91.80
2018-06-08T21:59:11.535Z,91.80
2018-06-08T22:01:39.512Z,91.80
2018-06-08T22:04:07.482Z,91.80
2018-06-08T22:06:35.384Z,91.80
2018-06-08T22:09:05.521Z,91.70
2018-06-08T22:11:34.347Z,91.80
2018-06-08T22:14:02.564Z,91.80
2018-06-08T22:16:30.459Z,91.70
2018-06-08T22:18:58.344Z,91.70
2018-06-08T22:21:26.919Z,91.80
2018-06-08T22:23:55.085Z,91.70
2018-06-08T22:26:23.014Z,91.70
2018-06-08T22:28:51.207Z,91.80
2018-06-08T22:31:19.351Z,91.90
2018-06-08T22:33:47.236Z,91.90
2018-06-08T22:38:42.983Z,92.10
2018-06-08T22:43:38.642Z,92.00
2018-06-08T22:46:06.499Z,92.00
2018-06-08T22:48:34.381Z,91.90
2018-06-08T22:51:02.395Z,92.00
2018-06-08T22:53:30.270Z,92.10
2018-06-08T22:55:58.210Z,92.00
2018-06-08T22:58:26.104Z,92.00
2018-06-08T23:00:54.529Z,92.20
2018-06-08T23:03:22.439Z,92.10
2018-06-08T23:05:50.327Z,92.10
2018-06-08T23:08:18.211Z,92.00
2018-06-08T23:15:42.639Z,92.30
2018-06-08T23:20:38.455Z,92.60
2018-06-08T23:25:34.188Z,92.50
2018-06-08T23:30:29.864Z,92.50
2018-06-08T23:32:58.114Z,92.20
2018-06-08T23:35:26.658Z,92.40
2018-06-08T23:37:54.520Z,92.30
2018-06-08T23:40:22.377Z,92.30
2018-06-08T23:42:50.246Z,92.30
2018-06-08T23:45:18.112Z,92.30
2018-06-08T23:47:46.011Z,92.20
2018-06-08T23:52:41.855Z,92.10
2018-06-08T23:55:09.914Z,92.10
2018-06-08T23:57:37.764Z,92.00
